createdAt,value
2022-08-14T00:01:02.173Z,100421.00
2022-08-14T00:06:14.148Z,100412.80
2022-08-14T00:11:26.851Z,100405.00
2022-08-14T00:16:41.251Z,100406.20
2022-08-14T00:21:44.020Z,100398.20
2022-08-14T00:26:43.828Z,100390.40
2022-08-14T00:31:47.891Z,100380.00
2022-08-14T00:36:55.353Z,100382.60
2022-08-14T00:41:58.726Z,100375.20
2022-08-14T00:46:58.847Z,100373.00
2022-08-14T00:52:00.154Z,100368.80
2022-08-14T00:57:00.147Z,100364.20
2022-08-14T01:02:03.083Z,100364.40
2022-08-14T01:07:05.013Z,100353.40
2022-08-14T01:12:12.013Z,100351.60
2022-08-14T01:17:13.607Z,100353.60
2022-08-14T01:22:18.597Z,100346.40
2022-08-14T01:27:24.155Z,100340.40
2022-08-14T01:32:25.196Z,100342.00
2022-08-14T01:37:24.897Z,100339.80
2022-08-14T01:42:31.353Z,100331.80
2022-08-14T01:47:33.598Z,100337.60
2022-08-14T01:52:59.886Z,100345.40
2022-08-14T01:58:01.389Z,100353.00
2022-08-14T02:03:02.055Z,100356.60
2022-08-14T02:08:08.946Z,100355.20
2022-08-14T02:13:11.414Z,100358.00
2022-08-14T02:18:10.440Z,100358.80
2022-08-14T02:23:11.442Z,100352.20
2022-08-14T02:28:24.970Z,100354.00
2022-08-14T02:33:29.731Z,100349.00
2022-08-14T02:38:35.801Z,100341.40
2022-08-14T02:43:46.186Z,100332.60
2022-08-14T02:49:03.048Z,100334.20
2022-08-14T02:54:05.655Z,100328.60
2022-08-14T02:59:06.607Z,100321.00
2022-08-14T03:04:10.878Z,100330.40
2022-08-14T03:09:10.163Z,100328.40
2022-08-14T03:14:12.274Z,100320.00
2022-08-14T03:19:15.172Z,100310.40
2022-08-14T03:24:22.868Z,100304.00
2022-08-14T03:29:24.618Z,100311.00
2022-08-14T03:34:47.940Z,100311.00
2022-08-14T03:39:46.681Z,100306.40
2022-08-14T03:45:19.913Z,100298.60
2022-08-14T03:50:14.501Z,100305.20
2022-08-14T03:55:28.741Z,100296.20
2022-08-14T04:00:43.870Z,100295.40
2022-08-14T04:05:48.715Z,100294.60
2022-08-14T04:10:50.415Z,100295.20
2022-08-14T04:16:01.253Z,100299.20
2022-08-14T04:21:01.375Z,100307.60
2022-08-14T04:26:00.548Z,100306.60
2022-08-14T04:31:00.047Z,100295.80
2022-08-14T04:35:59.219Z,100308.60
2022-08-14T04:41:12.221Z,100314.60
2022-08-14T04:46:55.220Z,100322.60
2022-08-14T04:51:46.920Z,100326.80
2022-08-14T04:56:54.452Z,100329.60
2022-08-14T05:01:57.309Z,100329.20
2022-08-14T05:06:57.896Z,100322.40
2022-08-14T05:12:00.628Z,100319.00
2022-08-14T05:17:17.167Z,100324.80
2022-08-14T05:22:19.153Z,100323.40
2022-08-14T05:27:23.363Z,100325.60
2022-08-14T05:32:22.017Z,100325.40
2022-08-14T05:37:22.928Z,100327.40
2022-08-14T05:42:29.314Z,100325.60
2022-08-14T05:47:33.909Z,100327.60
2022-08-14T05:52:39.693Z,100324.60
2022-08-14T05:57:49.525Z,100318.60
2022-08-14T06:02:48.905Z,100316.00
2022-08-14T06:07:51.290Z,100313.40
2022-08-14T06:13:05.731Z,100312.40
2022-08-14T06:18:04.519Z,100309.60
2022-08-14T06:23:04.297Z,100307.60
2022-08-14T06:28:04.068Z,100310.20
2022-08-14T06:33:06.853Z,100303.80
2022-08-14T06:38:06.095Z,100307.60
2022-08-14T06:43:09.926Z,100315.60
2022-08-14T06:48:17.253Z,100319.80
2022-08-14T06:53:17.912Z,100315.40
2022-08-14T06:58:28.551Z,100316.00
2022-08-14T07:03:46.332Z,100311.40
2022-08-14T07:08:47.285Z,100318.60
2022-08-14T07:13:48.806Z,100318.20
2022-08-14T07:18:50.951Z,100312.40
2022-08-14T07:23:50.453Z,100313.80
2022-08-14T07:28:50.465Z,100313.00
2022-08-14T07:33:51.643Z,100315.20
2022-08-14T07:38:52.230Z,100318.60
2022-08-14T07:43:55.428Z,100310.80
2022-08-14T07:48:55.170Z,100315.60
2022-08-14T07:53:56.790Z,100312.40
2022-08-14T07:58:58.549Z,100307.60
2022-08-14T08:04:01.152Z,100309.00
2022-08-14T08:09:04.167Z,100297.00
2022-08-14T08:14:10.279Z,100301.00
2022-08-14T08:19:19.309Z,100303.80
2022-08-14T08:24:20.782Z,100303.80
2022-08-14T08:29:29.314Z,100309.80
2022-08-14T08:34:30.770Z,100304.20
2022-08-14T08:39:42.165Z,100302.00
2022-08-14T08:44:56.791Z,100303.00
2022-08-14T08:49:59.720Z,100306.40
2022-08-14T08:54:59.717Z,100304.60
2022-08-14T09:00:02.484Z,100302.00
2022-08-14T09:05:10.958Z,100296.40
2022-08-14T09:10:13.221Z,100300.40
2022-08-14T09:15:18.436Z,100302.00
2022-08-14T09:20:25.905Z,100303.00
2022-08-14T09:25:59.743Z,100297.20
2022-08-14T09:30:54.550Z,100295.40
2022-08-14T09:36:11.227Z,100293.40
2022-08-14T09:42:21.890Z,100287.20
2022-08-14T09:47:03.677Z,100286.40
2022-08-14T09:52:23.689Z,100282.00
2022-08-14T09:57:33.441Z,100282.00
2022-08-14T10:02:35.650Z,100278.00
2022-08-14T10:07:50.781Z,100273.00
2022-08-14T10:12:58.220Z,100269.20
2022-08-14T10:18:17.490Z,100266.20
2022-08-14T10:23:19.785Z,100259.40
2022-08-14T10:29:03.805Z,100259.60
2022-08-14T10:33:39.027Z,100255.00
2022-08-14T10:38:42.768Z,100250.00
2022-08-14T10:44:21.655Z,100249.80
2022-08-14T10:49:28.099Z,100248.80
2022-08-14T10:54:40.342Z,100244.40
2022-08-14T10:59:50.144Z,100241.00
2022-08-14T11:05:05.015Z,100236.20
2022-08-14T11:10:11.253Z,100233.80
2022-08-14T11:15:14.832Z,100231.00
2022-08-14T11:20:18.349Z,100235.40
2022-08-14T11:25:21.362Z,100225.60
2022-08-14T11:30:50.526Z,100223.60
2022-08-14T11:35:47.210Z,100222.80
2022-08-14T11:40:47.675Z,100216.60
2022-08-14T11:45:50.586Z,100210.00
2022-08-14T11:50:54.941Z,100212.60
2022-08-14T11:56:05.633Z,100212.40
2022-08-14T12:01:09.781Z,100217.20
2022-08-14T12:06:29.186Z,100212.00
2022-08-14T12:11:47.035Z,100201.80
2022-08-14T12:16:47.356Z,100195.20
2022-08-14T12:21:55.542Z,100189.80
2022-08-14T12:27:00.651Z,100189.60
2022-08-14T12:32:12.763Z,100196.40
2022-08-14T12:37:13.571Z,100199.40
2022-08-14T12:42:33.891Z,100193.20
2022-08-14T12:47:33.547Z,100193.20
2022-08-14T12:52:47.383Z,100188.00
2022-08-14T12:58:35.072Z,100175.00
2022-08-14T13:03:33.300Z,100168.00
2022-08-14T13:08:34.702Z,100160.00
2022-08-14T13:13:38.002Z,100154.80
2022-08-14T13:18:47.211Z,100140.60
2022-08-14T13:23:57.639Z,100133.40
2022-08-14T13:29:03.769Z,100130.80
2022-08-14T13:34:06.282Z,100120.40
2022-08-14T13:39:09.537Z,100125.60
2022-08-14T13:44:15.397Z,100136.00
2022-08-14T13:49:21.241Z,100141.20
2022-08-14T13:54:25.178Z,100138.40
2022-08-14T13:59:38.064Z,100133.80
2022-08-14T14:04:49.264Z,100125.80
2022-08-14T14:09:51.117Z,100110.40
2022-08-14T14:14:54.554Z,100103.00
2022-08-14T14:19:53.968Z,100106.20
2022-08-14T14:24:52.882Z,100114.80
2022-08-14T14:29:58.541Z,100103.60
2022-08-14T14:35:01.729Z,100091.60
2022-08-14T14:40:53.750Z,100100.80
2022-08-14T14:45:30.110Z,100102.60
2022-08-14T14:50:29.262Z,100107.40
2022-08-14T14:55:29.289Z,100114.00
2022-08-14T15:00:49.732Z,100110.20
2022-08-14T15:05:53.383Z,100107.40
2022-08-14T15:10:54.125Z,100111.80
2022-08-14T15:15:55.449Z,100119.60
2022-08-14T15:20:57.661Z,100118.60
2022-08-14T15:25:56.920Z,100123.60
2022-08-14T15:31:01.067Z,100117.00
2022-08-14T15:36:04.538Z,100121.80
2022-08-14T15:41:15.685Z,100123.40
2022-08-14T15:46:25.240Z,100126.40
2022-08-14T15:51:34.167Z,100139.00
2022-08-14T15:56:42.543Z,100132.00
2022-08-14T16:01:53.708Z,100131.00
2022-08-14T16:07:02.721Z,100131.80
2022-08-14T16:12:10.732Z,100128.20
2022-08-14T16:17:14.173Z,100119.20
2022-08-14T16:22:58.579Z,100117.60
2022-08-14T16:27:39.438Z,100119.20
2022-08-14T16:32:55.354Z,100131.80
2022-08-14T16:37:55.718Z,100134.80
2022-08-14T16:43:04.256Z,100126.00
2022-08-14T16:48:57.330Z,100113.20
2022-08-14T16:53:35.768Z,100094.80
2022-08-14T16:58:35.295Z,100095.60
2022-08-14T17:03:58.625Z,100077.60
2022-08-14T17:08:58.809Z,100082.40
2022-08-14T17:14:01.460Z,100087.60
2022-08-14T17:19:04.802Z,100087.00
2022-08-14T17:24:58.414Z,100088.60
2022-08-14T17:29:31.229Z,100100.80
2022-08-14T17:34:48.378Z,100102.00
2022-08-14T17:40:15.104Z,100101.40
2022-08-14T17:45:16.491Z,100096.40
2022-08-14T17:50:59.568Z,100097.20
2022-08-14T17:56:02.454Z,100107.20
2022-08-14T18:01:04.632Z,100114.40
2022-08-14T18:06:07.352Z,100103.00
2022-08-14T18:11:26.487Z,100110.40
2022-08-14T18:16:46.733Z,100162.40
2022-08-14T18:21:56.686Z,100169.80
2022-08-14T18:27:08.916Z,100147.20
2022-08-14T18:32:57.070Z,100135.40
2022-08-14T18:38:26.416Z,100109.40
2022-08-14T18:43:59.030Z,100118.20
2022-08-14T18:49:18.264Z,100120.80
2022-08-14T18:54:37.632Z,100111.20
2022-08-14T18:59:43.081Z,100106.80
2022-08-14T19:04:43.456Z,100119.00
2022-08-14T19:10:01.048Z,100114.00
2022-08-14T19:15:12.344Z,100104.00
2022-08-14T19:20:17.150Z,100093.80
2022-08-14T19:25:56.703Z,100082.40
2022-08-14T19:31:42.028Z,100067.20
2022-08-14T19:37:05.900Z,100054.80
2022-08-14T19:42:10.181Z,100062.40
2022-08-14T19:47:11.483Z,100073.00
2022-08-14T19:52:22.393Z,100079.20
2022-08-14T19:57:25.284Z,100076.00
2022-08-14T20:02:31.779Z,100066.20
2022-08-14T20:07:59.386Z,100063.40
2022-08-14T20:13:04.157Z,100059.00
2022-08-14T20:18:06.111Z,100056.00
2022-08-14T20:23:13.772Z,100046.60
2022-08-14T20:28:29.116Z,100040.80
2022-08-14T20:33:29.438Z,100033.00
2022-08-14T20:38:56.468Z,100024.80
2022-08-14T20:44:20.536Z,100029.60
2022-08-14T20:49:21.356Z,100028.40
2022-08-14T20:54:34.736Z,100029.60
2022-08-14T20:59:43.638Z,100032.80
2022-08-14T21:04:54.430Z,100032.60
2022-08-14T21:10:35.234Z,100039.00
2022-08-14T21:15:32.141Z,100033.00
2022-08-14T21:20:34.071Z,100037.60
2022-08-14T21:25:36.259Z,100049.20
2022-08-14T21:30:51.889Z,100064.40
2022-08-14T21:35:55.620Z,100067.80
2022-08-14T21:40:58.621Z,100070.80
2022-08-14T21:45:59.409Z,100081.40
2022-08-14T21:51:55.928Z,100069.60
2022-08-14T21:56:37.638Z,100065.60
2022-08-14T22:02:01.401Z,100054.40
2022-08-14T22:07:00.859Z,100053.40
2022-08-14T22:12:01.611Z,100036.20
2022-08-14T22:17:13.196Z,100024.80
2022-08-14T22:22:17.116Z,100017.80
2022-08-14T22:27:16.244Z,100012.40
2022-08-14T22:32:18.059Z,100013.80
2022-08-14T22:37:16.835Z,100006.20
2022-08-14T22:42:21.200Z,100010.60
2022-08-14T22:47:25.086Z,100014.00
2022-08-14T22:52:32.667Z,100014.60
2022-08-14T22:57:37.131Z,100008.40
2022-08-14T23:02:37.715Z,100013.40
2022-08-14T23:09:00.401Z,100011.00
2022-08-14T23:12:58.119Z,100015.60
2022-08-14T23:17:56.604Z,100010.20
2022-08-14T23:22:58.674Z,100014.40
2022-08-14T23:28:03.387Z,100023.40
2022-08-14T23:33:04.997Z,100023.20
2022-08-14T23:38:05.663Z,100023.40
2022-08-14T23:43:11.347Z,100018.40
2022-08-14T23:48:14.155Z,100017.40
2022-08-14T23:53:28.351Z,100016.80
2022-08-14T23:58:49.362Z,100011.60
